Time;durP1;ratioP1;P1;durP2;ratioP2;P2;SDS_P1;SDS_P2;PMS_P1;PMS_P2;Temp;Humidity;BMP_temperature;BMP_pressure;BME280_temperature;BME280_humidity;BME280_pressure;Samples;Min_cycle;Max_cycle;Signal;HPM_P1;HPM_P2
2024/03/18 00:02:47;;;;;;;4.82;1.63;;;;;;;2.66;100.00;100965.03;5019280;28;20111;-83
2024/03/18 00:05:50;;;;;;;3.13;1.73;;;;;;;2.34;100.00;100904.00;5024870;28;20037;-83
2024/03/18 00:08:34;;;;;;;3.20;1.95;;;;;;;2.39;100.00;100915.06;5014790;28;20127;-83
2024/03/18 00:11:37;;;;;;;3.47;1.73;;;;;;;2.64;100.00;101035.47;5027822;28;20053;-82
2024/03/18 00:17:06;;;;;;;3.92;2.10;;;;;;;2.62;100.00;101016.28;5029341;28;20483;-83
2024/03/18 00:19:51;;;;;;;3.05;1.95;;;;;;;2.23;100.00;100924.97;5013440;28;20485;-83
2024/03/18 00:25:37;;;;;;;4.70;1.73;;;;;;;2.32;100.00;100998.97;5020085;28;20040;-82
2024/03/18 00:37:50;;;;;;;6.43;2.55;;;;;;;2.26;100.00;101102.13;4998080;28;20041;-78
2024/03/18 00:40:16;;;;;;;5.43;2.30;;;;;;;2.09;100.00;101103.22;5001391;28;20383;-78
2024/03/18 00:43:37;;;;;;;6.13;2.47;;;;;;;2.11;100.00;101101.34;4984155;28;20057;-79
2024/03/18 00:55:33;;;;;;;6.85;2.13;;;;;;;2.16;100.00;101145.81;4983268;28;20042;-76
2024/03/18 01:01:39;;;;;;;3.75;2.22;;;;;;;2.30;100.00;101179.19;4980101;28;20057;-78
2024/03/18 01:07:07;;;;;;;4.63;2.15;;;;;;;2.02;100.00;101165.13;4991727;28;20038;-78
2024/03/18 01:13:34;;;;;;;6.40;2.53;;;;;;;2.27;100.00;101184.63;4974119;28;20197;-78
2024/03/18 01:25:29;;;;;;;3.85;2.20;;;;;;;2.23;100.00;101191.06;4975632;28;20058;-78
2024/03/18 01:31:18;;;;;;;4.03;2.60;;;;;;;2.15;100.00;101190.69;4976548;28;20049;-76
2024/03/18 01:37:24;;;;;;;3.17;2.35;;;;;;;2.30;100.00;101201.09;4999455;28;20034;-76
2024/03/18 01:39:49;;;;;;;5.22;2.45;;;;;;;2.11;100.00;101127.69;4984839;28;20227;-77
2024/03/18 01:49:00;;;;;;;2.85;2.28;;;;;;;1.84;100.00;101168.91;5000044;28;20084;-78
2024/03/18 01:51:44;;;;;;;4.60;2.63;;;;;;;1.86;100.00;101178.41;4987184;28;20204;-80
2024/03/18 01:54:47;;;;;;;3.95;2.50;;;;;;;2.06;100.00;101200.88;4978324;28;20133;-79
2024/03/18 02:01:12;;;;;;;6.18;2.63;;;;;;;1.94;100.00;101145.50;4999252;28;20412;-78
2024/03/18 02:03:56;;;;;;;13.52;3.20;;;;;;;2.01;100.00;101146.78;4999482;28;20045;-78
2024/03/18 02:13:05;;;;;;;4.10;2.20;;;;;;;1.82;100.00;101142.69;4985026;28;20116;-78
2024/03/18 02:25:18;;;;;;;4.07;2.40;;;;;;;1.72;100.00;101104.72;4972745;28;20058;-80
2024/03/18 02:28:21;;;;;;;4.60;2.80;;;;;;;1.52;100.00;101090.16;4987208;28;20104;-79
2024/03/18 02:31:05;;;;;;;5.68;2.38;;;;;;;1.69;100.00;101147.88;4971324;28;20441;-79
2024/03/18 02:33:49;;;;;;;5.15;2.25;;;;;;;1.67;100.00;101117.34;4977413;28;20112;-79
2024/03/18 02:36:33;;;;;;;3.25;2.25;;;;;;;1.81;100.00;101137.53;4982931;28;20073;-79
2024/03/18 02:45:42;;;;;;;4.90;3.53;;;;;;;1.66;100.00;101029.63;4985654;28;20096;-78
2024/03/18 02:48:27;;;;;;;3.28;2.38;;;;;;;1.49;100.00;100998.28;4985931;28;20030;-79
2024/03/18 02:51:31;;;;;;;4.97;2.35;;;;;;;1.46;100.00;100983.53;4983132;28;20143;-78
2024/03/18 02:54:34;;;;;;;3.38;2.13;;;;;;;1.69;100.00;101005.75;4981461;28;20088;-78
2024/03/18 02:56:59;;;;;;;4.03;2.28;;;;;;;1.67;100.00;100954.97;4986615;28;20432;-80
2024/03/18 03:03:24;;;;;;;4.82;2.00;;;;;;;1.33;100.00;100843.19;4984818;28;20045;-77
2024/03/18 03:12:32;;;;;;;2.70;1.48;;;;;;;1.71;100.00;100836.31;4977424;28;20099;-80
2024/03/18 03:15:17;;;;;;;3.33;1.60;;;;;;;1.64;100.00;100763.06;4984545;28;20100;-79
2024/03/18 03:18:20;;;;;;;4.35;1.77;;;;;;;1.48;100.00;100739.56;4978983;28;20043;-79
2024/03/18 03:20:45;;;;;;;1.92;1.60;;;;;;;1.46;100.00;100751.16;5002491;28;20045;-78
2024/03/18 03:23:29;;;;;;;2.60;1.77;;;;;;;1.42;100.00;100739.97;4989205;28;20023;-79
2024/03/18 03:29:16;;;;;;;5.72;1.52;;;;;;;1.35;100.00;100665.03;4990423;28;20484;-79
2024/03/18 03:32:20;;;;;;;3.63;1.60;;;;;;;1.24;100.00;100615.81;4973791;28;20420;-80
2024/03/18 03:37:48;;;;;;;2.38;1.73;;;;;;;1.42;100.00;100697.88;5000931;28;20108;-79
2024/03/18 03:40:54;;;;;;;2.05;1.30;;;;;;;1.37;100.00;100614.97;4997692;28;20049;-78
2024/03/18 03:43:21;;;;;;;3.92;1.90;;;;;;;1.01;100.00;100543.78;4983761;28;20035;-79
2024/03/18 03:46:07;;;;;;;2.67;1.52;;;;;;;1.17;100.00;100646.13;4989725;28;20015;-78
2024/03/18 03:48:51;;;;;;;2.67;1.60;;;;;;;1.29;100.00;100628.66;4987189;28;20045;-79
2024/03/18 03:54:58;;;;;;;3.03;1.42;;;;;;;1.17;100.00;100627.72;4985975;28;20104;-78
2024/03/18 03:57:42;;;;;;;6.72;3.45;;;;;;;0.96;100.00;100584.47;4989898;28;20037;-79
2024/03/18 04:10:31;;;;;;;2.33;1.50;;;;;;;1.15;100.00;100544.63;5000330;28;20084;-78
2024/03/18 04:26:08;;;;;;;1.92;1.60;;;;;;;0.74;100.00;100529.91;4990959;28;20045;-78
2024/03/18 04:28:35;;;;;;;1.98;1.70;;;;;;;0.90;100.00;100595.41;5000551;28;20045;-80
2024/03/18 04:31:11;;;;;;;2.78;1.92;;;;;;;0.88;100.00;100581.53;4982335;28;20034;-78
2024/03/18 04:37:17;;;;;;;3.25;1.90;;;;;;;1.09;100.00;100577.41;4990629;28;20133;-79
2024/03/18 04:40:06;;;;;;;1.90;1.52;;;;;;;1.26;100.00;100568.34;4989352;28;20068;-79
2024/03/18 04:43:27;;;;;;;3.00;1.55;;;;;;;1.26;100.00;100571.84;4989382;28;20198;-79
2024/03/18 04:45:53;;;;;;;3.75;1.30;;;;;;;0.92;100.00;100498.88;5002948;28;20584;-80
2024/03/18 04:48:37;;;;;;;2.88;2.10;;;;;;;0.82;100.00;100531.06;4980084;28;20093;-79
2024/03/18 04:54:27;;;;;;;4.53;2.03;;;;;;;0.94;100.00;100554.84;4989648;28;20030;-78
2024/03/18 04:57:10;;;;;;;;;;;;;;;0.74;100.00;100490.47;5002957;28;20126;-79
2024/03/18 05:05:41;;;;;;;2.90;1.67;;;;;;;0.62;100.00;100532.41;4985920;28;20088;-79
2024/03/18 05:08:25;;;;;;;4.18;2.50;;;;;;;0.64;100.00;100571.72;4988985;28;20053;-79
2024/03/18 05:11:28;;;;;;;2.65;1.52;;;;;;;0.73;100.00;100613.16;4987980;28;20039;-80
2024/03/18 05:14:31;;;;;;;3.28;1.85;;;;;;;0.81;100.00;100558.28;4989556;28;20511;-79
2024/03/18 05:17:16;;;;;;;3.88;1.67;;;;;;;0.65;100.00;100548.91;4972715;28;20043;-78
2024/03/18 05:23:23;;;;;;;2.22;1.50;;;;;;;0.82;100.00;100583.63;5000304;28;20125;-79
2024/03/18 05:26:07;;;;;;;4.88;1.95;;;;;;;0.92;100.00;100596.16;4984208;28;20146;-78
2024/03/18 05:28:32;;;;;;;2.28;1.80;;;;;;;0.66;100.00;100471.78;4970548;28;20034;-79
2024/03/18 05:34:19;;;;;;;2.42;1.58;;;;;;;0.70;100.00;100542.38;4988657;28;20523;-79
2024/03/18 05:37:23;;;;;;;2.20;1.52;;;;;;;0.70;100.00;100515.28;4987124;28;20070;-78
2024/03/18 05:40:25;;;;;;;7.90;1.67;;;;;;;0.67;100.00;100536.50;4984421;28;20048;-77
2024/03/18 05:43:09;;;;;;;4.05;2.10;;;;;;;0.66;100.00;100535.69;4976962;28;20031;-78
2024/03/18 05:45:54;;;;;;;4.93;1.58;;;;;;;0.82;100.00;100599.41;4989046;28;20606;-78
2024/03/18 05:52:18;;;;;;;1.80;1.45;;;;;;;0.91;100.00;100610.22;4988447;28;20108;-78
2024/03/18 06:04:48;;;;;;;3.20;1.77;;;;;;;0.69;100.00;100511.81;4986988;28;20134;-80
2024/03/18 06:07:51;;;;;;;2.08;1.42;;;;;;;0.74;100.00;100575.41;4995257;28;20066;-78
2024/03/18 06:13:20;;;;;;;2.50;1.73;;;;;;;0.83;100.00;100587.94;4982160;28;20115;-79
2024/03/18 06:16:05;;;;;;;2.88;2.17;;;;;;;0.86;100.00;100551.88;5002211;28;20049;-78
2024/03/18 06:22:49;;;;;;;3.38;1.80;;;;;;;1.16;100.00;100641.78;4987653;28;20049;-78
2024/03/18 06:28:36;;;;;;;3.40;1.98;;;;;;;0.91;100.00;100549.75;4997094;28;20129;-78
2024/03/18 06:34:23;;;;;;;4.22;2.15;;;;;;;0.83;100.00;100548.50;4986116;28;20085;-76
2024/03/18 06:37:07;;;;;;;8.48;2.88;;;;;;;0.76;100.00;100541.16;4982425;28;20746;-78
2024/03/18 06:40:29;;;;;;;5.03;2.40;;;;;;;0.82;100.00;100593.31;4991315;28;20136;-79
2024/03/18 06:43:32;;;;;;;4.97;1.90;;;;;;;1.14;100.00;100653.38;4986168;28;20141;-76
2024/03/18 06:59:24;;;;;;;7.35;2.35;;;;;;;2.50;100.00;100468.94;4985485;28;20136;-78
2024/03/18 07:02:08;;;;;;;6.97;2.63;;;;;;;2.11;100.00;100242.72;4998678;28;20038;-78
2024/03/18 07:14:00;;;;;;;4.95;2.72;;;;;;;2.88;100.00;100117.94;4987261;28;20100;-78
2024/03/18 07:16:26;;;;;;;6.72;2.38;;;;;;;2.54;100.00;100044.28;4972335;28;20054;-78
2024/03/18 07:22:14;;;;;;;7.25;3.67;;;;;;;2.51;100.00;100063.00;4996573;28;19976;-77
2024/03/18 07:25:36;;;;;;;7.45;3.58;;;;;;;2.29;100.00;100090.28;4986409;28;20088;-76
2024/03/18 07:28:20;;;;;;;6.60;3.03;;;;;;;2.95;100.00;100069.00;4977434;28;20061;-77
2024/03/18 07:30:46;;;;;;;5.78;2.63;;;;;;;2.49;100.00;99933.19;4988307;28;20035;-77
2024/03/18 07:36:14;;;;;;;5.07;2.70;;;;;;;2.50;100.00;99952.44;4978445;28;20038;-77
2024/03/18 07:39:17;;;;;;;7.80;3.45;;;;;;;2.84;100.00;99928.50;4979776;28;20132;-75
2024/03/18 07:41:43;;;;;;;8.10;2.58;;;;;;;2.63;100.00;99781.78;4987299;28;20070;-76
2024/03/18 07:44:45;;;;;;;5.20;2.53;;;;;;;3.13;100.00;99812.53;4986419;28;20069;-76
2024/03/18 07:47:48;;;;;;;5.50;2.30;;;;;;;3.35;100.00;99677.72;4986503;28;20747;-76
2024/03/18 07:50:34;;;;;;;5.13;2.78;;;;;;;4.15;100.00;99728.31;4985976;28;20095;-75
2024/03/18 07:53:36;;;;;;;7.65;3.13;;;;;;;3.77;100.00;99531.28;4987625;28;20057;-76
2024/03/18 08:06:26;;;;;;;9.00;2.60;;;;;;;3.87;100.00;99467.84;4986900;28;20042;-76
2024/03/18 08:09:30;;;;;;;9.25;4.07;;;;;;;3.65;100.00;99369.63;4989144;28;20045;-75
2024/03/18 08:27:09;;;;;;;4.07;1.95;;;;;;;3.71;100.00;99439.47;4985897;28;20069;-76
2024/03/18 08:30:14;;;;;;;6.88;2.60;;;;;;;3.66;100.00;99251.69;4974671;28;20058;-76
2024/03/18 08:36:01;;;;;;;4.68;1.88;;;;;;;3.36;100.00;99098.94;4982755;28;19953;-75
2024/03/18 08:39:04;;;;;;;5.50;2.55;;;;;;;4.13;100.00;99267.97;4986910;28;20520;-78
2024/03/18 08:44:52;;;;;;;4.00;2.00;;;;;;;4.29;96.39;99018.06;4983569;28;20754;-76
2024/03/18 08:54:00;;;;;;;3.95;2.03;;;;;;;4.84;95.53;99183.97;4987988;28;20033;-76
2024/03/18 08:57:03;;;;;;;5.07;3.03;;;;;;;5.78;96.23;99450.03;4985668;28;20072;-76
2024/03/18 09:05:54;;;;;;;10.15;3.42;;;;;;;5.58;94.64;99363.97;4977649;28;20049;-76
2024/03/18 09:08:57;;;;;;;5.22;3.42;;;;;;;5.25;94.22;99256.25;4967991;28;20117;-76
2024/03/18 09:12:18;;;;;;;6.03;3.03;;;;;;;4.88;93.72;99131.59;4969484;28;20495;-76
2024/03/18 09:15:04;;;;;;;7.55;3.53;;;;;;;4.99;95.14;99359.53;4998264;28;20061;-76
2024/03/18 09:17:49;;;;;;;7.68;3.50;;;;;;;5.54;94.85;99473.84;4983438;28;20057;-76
2024/03/18 09:20:55;;;;;;;3.72;2.10;;;;;;;4.99;93.81;99252.94;4974475;28;20052;-76
2024/03/18 09:23:39;;;;;;;4.95;2.20;;;;;;;5.86;93.96;99499.56;4988149;28;20046;-76
2024/03/18 09:26:24;;;;;;;3.70;2.22;;;;;;;4.77;93.18;99162.63;4972837;28;20421;-76
2024/03/18 09:29:08;;;;;;;2.75;1.77;;;;;;;5.68;93.34;99417.59;4968342;28;20039;-75
2024/03/18 09:32:12;;;;;;;4.53;1.73;;;;;;;6.66;89.88;99279.66;4969213;28;20039;-76
2024/03/18 09:34:56;;;;;;;2.83;2.15;;;;;;;7.03;88.96;99302.03;4980904;28;20048;-76
2024/03/18 09:40:47;;;;;;;4.10;2.17;;;;;;;7.65;86.67;99242.66;4983361;28;20081;-76
2024/03/18 09:49:22;;;;;;;2.30;1.37;;;;;;;8.22;84.15;99291.75;4975584;28;20066;-76
2024/03/18 09:52:07;;;;;;;4.85;1.55;;;;;;;7.79;81.43;98899.13;4966634;28;20278;-76
2024/03/18 10:04:01;;;;;;;5.07;1.90;;;;;;;8.01;79.25;98886.66;4974135;28;20042;-76
2024/03/18 10:06:27;;;;;;;5.53;2.10;;;;;;;7.90;79.88;98977.50;4978361;28;20034;-76
2024/03/18 10:08:52;;;;;;;3.33;1.67;;;;;;;8.14;80.54;99124.38;4979794;28;20121;-76
2024/03/18 10:15:02;;;;;;;5.80;2.15;;;;;;;7.57;80.43;99097.47;4998372;28;20076;-76
2024/03/18 10:17:46;;;;;;;3.47;1.83;;;;;;;7.86;78.55;98922.28;4950076;28;20031;-76
2024/03/18 10:20:54;;;;;;;3.10;1.80;;;;;;;7.06;79.30;98839.94;4974177;28;20125;-76
2024/03/18 10:27:02;;;;;;;4.75;2.10;;;;;;;7.72;77.58;98876.16;4967041;28;20046;-76
2024/03/18 10:32:35;;;;;;;4.00;2.13;;;;;;;8.07;79.44;99219.16;4980862;28;20038;-77
2024/03/18 10:42:06;;;;;;;5.18;2.72;;;;;;;8.56;75.58;98843.53;4972430;28;20052;-76
2024/03/18 10:48:15;;;;;;;3.17;2.47;;;;;;;8.70;76.57;99097.16;4975900;28;20049;-76
2024/03/18 10:54:23;;;;;;;4.68;1.80;;;;;;;7.33;75.16;98607.47;4966859;28;20691;-76
2024/03/18 11:03:32;;;;;;;3.58;1.83;;;;;;;7.37;74.75;98677.75;4971361;28;20023;-76
2024/03/18 11:19:17;;;;;;;3.00;1.83;;;;;;;7.85;71.02;98471.66;4997443;28;20045;-76
2024/03/18 11:26:00;;;;;;;2.67;1.50;;;;;;;8.49;70.88;98620.06;4974940;28;20058;-76
2024/03/18 11:29:07;;;;;;;1.75;1.33;;;;;;;9.32;72.17;99069.81;4969365;28;20413;-77
2024/03/18 11:31:35;;;;;;;3.30;1.88;;;;;;;9.50;70.83;98882.81;4981756;28;20027;-77
2024/03/18 11:34:38;;;;;;;3.22;2.00;;;;;;;7.80;71.07;98448.34;4995778;28;20050;-76
2024/03/18 11:44:25;;;;;;;2.45;2.10;;;;;;;8.61;70.98;98687.63;4971379;28;20054;-77
2024/03/18 11:54:12;;;;;;;5.00;2.38;;;;;;;8.90;72.75;99078.69;4982173;28;20040;-76
2024/03/18 11:57:15;;;;;;;5.03;2.72;;;;;;;9.89;71.30;99140.63;4976147;28;20952;-77
2024/03/18 11:59:59;;;;;;;4.82;4.30;;;;;;;9.16;69.71;98678.75;4998848;28;20073;-77
2024/03/18 12:05:46;;;;;;;3.83;2.42;;;;;;;8.86;71.33;98916.75;4978054;28;20041;-76
2024/03/18 12:08:33;;;;;;;9.13;2.63;;;;;;;8.95;70.56;98808.31;4986221;28;20038;-76
2024/03/18 12:11:55;;;;;;;4.38;1.95;;;;;;;9.36;69.44;98732.81;4983059;28;20145;-77
2024/03/18 12:20:27;;;;;;;2.88;2.17;;;;;;;8.16;70.79;98625.25;4971998;28;20038;-77
2024/03/18 12:30:34;;;;;;;3.72;2.45;;;;;;;7.29;73.04;98674.41;4973518;28;20050;-77
2024/03/18 12:36:40;;;;;;;5.20;2.22;;;;;;;7.31;73.81;98831.66;4978258;28;20148;-77
2024/03/18 12:42:13;;;;;;;4.20;2.20;;;;;;;7.30;74.37;98880.41;4978407;28;20070;-77
2024/03/18 12:48:01;;;;;;;2.70;2.17;;;;;;;7.04;74.78;98860.53;4985377;28;20109;-76
2024/03/18 12:51:05;;;;;;;4.05;2.30;;;;;;;7.11;75.82;99023.31;4976609;28;20057;-77
2024/03/18 12:54:26;;;;;;;3.95;2.50;;;;;;;7.17;76.43;99078.31;4988949;28;20420;-76
2024/03/18 13:13:25;;;;;;;3.45;2.20;;;;;;;7.11;77.37;99134.75;4977172;28;20092;-77
2024/03/18 13:16:10;;;;;;;4.47;2.42;;;;;;;7.47;77.09;99181.06;4998815;28;20441;-77
2024/03/18 13:18:54;;;;;;;3.03;1.85;;;;;;;7.65;77.08;99209.94;4979765;28;20031;-77
2024/03/18 13:21:57;;;;;;;2.47;1.58;;;;;;;7.70;76.37;99154.44;5000065;28;20112;-77
2024/03/18 13:36:34;;;;;;;3.28;1.90;;;;;;;7.30;78.42;99284.75;4984649;28;20085;-76
2024/03/18 13:39:00;;;;;;;2.00;1.45;;;;;;;6.94;75.65;98823.66;4995800;28;20039;-78
2024/03/18 13:42:09;;;;;;;3.95;1.90;;;;;;;7.23;76.16;98988.34;4983771;28;20039;-76
2024/03/18 13:45:12;;;;;;;2.63;1.92;;;;;;;7.10;75.98;98915.53;4983517;28;20645;-76
2024/03/18 13:48:15;;;;;;;2.97;1.65;;;;;;;7.29;77.13;99099.94;4981360;28;20535;-77
2024/03/18 13:51:19;;;;;;;3.78;2.35;;;;;;;7.55;77.86;99301.34;4985011;28;20049;-77
2024/03/18 13:59:34;;;;;;;2.88;1.70;;;;;;;7.51;76.12;99049.59;4969047;28;20039;-77
2024/03/18 14:08:24;;;;;;;6.15;1.80;;;;;;;7.31;76.83;99083.84;4971549;28;20052;-78
2024/03/18 14:11:08;;;;;;;1.63;1.20;;;;;;;7.53;75.58;99008.56;4968185;28;20038;-77
2024/03/18 14:16:55;;;;;;;5.75;1.80;;;;;;;7.31;76.15;99042.19;4998157;28;20520;-77
2024/03/18 14:23:01;;;;;;;1.60;1.20;;;;;;;7.14;74.71;98802.69;4968065;28;20105;-77
2024/03/18 14:25:45;;;;;;;1.40;1.30;;;;;;;7.04;74.43;98741.13;4967608;28;20042;-77
2024/03/18 14:43:25;;;;;;;2.40;1.10;;;;;;;6.76;72.63;98487.22;5001802;28;20234;-77
2024/03/18 14:49:13;;;;;;;2.15;1.10;;;;;;;7.50;73.34;98824.91;4967478;28;20363;-77
2024/03/18 14:51:57;;;;;;;1.33;0.95;;;;;;;7.31;72.13;98590.09;4991737;28;20086;-77
2024/03/18 14:54:41;;;;;;;2.22;1.13;;;;;;;7.45;71.70;98589.16;4979553;28;20114;-76
2024/03/18 14:57:25;;;;;;;3.83;1.93;;;;;;;7.42;71.63;98572.78;4976958;28;20412;-77
2024/03/18 15:00:29;;;;;;;1.20;1.00;;;;;;;7.57;72.00;98677.06;4966669;28;20089;-76
2024/03/18 15:03:13;;;;;;;3.30;1.10;;;;;;;7.83;71.60;98709.09;4977159;28;20039;-77
2024/03/18 15:09:38;;;;;;;2.50;1.60;;;;;;;8.19;72.72;98986.38;4974416;28;20053;-77
2024/03/18 15:12:04;;;;;;;3.63;1.60;;;;;;;8.20;71.35;98800.13;4969053;28;20125;-77
2024/03/18 15:14:29;;;;;;;1.90;1.58;;;;;;;7.60;71.53;98615.59;4984259;28;20045;-77
2024/03/18 15:16:55;;;;;;;2.78;1.27;;;;;;;8.52;72.56;99101.09;4977732;28;20050;-77
2024/03/18 15:19:20;;;;;;;3.30;1.20;;;;;;;8.31;70.79;98777.50;4972350;28;20035;-77
2024/03/18 15:21:48;;;;;;;1.90;1.70;;;;;;;8.84;71.69;99098.94;4976242;28;20792;-77
2024/03/18 15:24:16;;;;;;;2.85;1.25;;;;;;;8.19;69.49;98545.97;4973740;28;20606;-77
2024/03/18 15:29:26;;;;;;;1.88;1.10;;;;;;;9.23;69.10;98837.47;5004756;28;20074;-76
2024/03/18 15:31:52;;;;;;;1.48;1.00;;;;;;;8.95;68.17;98659.25;4981692;28;20371;-77
2024/03/18 15:34:17;;;;;;;2.38;1.30;;;;;;;8.58;68.46;98527.63;4964188;28;20042;-77
2024/03/18 15:36:44;;;;;;;4.75;1.30;;;;;;;8.52;68.82;98592.25;4975658;28;20049;-76
2024/03/18 15:39:11;;;;;;;3.17;0.80;;;;;;;8.14;69.10;98523.63;4973353;28;20035;-77
2024/03/18 15:41:38;;;;;;;1.02;0.85;;;;;;;8.19;68.33;98502.59;4976964;28;20050;-77
2024/03/18 15:44:06;;;;;;;;;;;;;;;7.77;68.70;98363.75;4978523;28;20047;-77
2024/03/18 15:46:33;;;;;;;0.90;0.75;;;;;;;7.73;70.35;98618.31;4974146;28;19984;-76
2024/03/18 15:48:59;;;;;;;3.85;1.15;;;;;;;8.29;70.56;98879.72;4989083;28;20030;-76
2024/03/18 15:51:24;;;;;;;0.90;0.70;;;;;;;8.32;70.21;98840.28;4981173;28;20027;-77
2024/03/18 15:53:50;;;;;;;4.40;2.07;;;;;;;8.34;70.68;98866.69;4999055;28;20555;-78
2024/03/18 15:56:16;;;;;;;2.35;1.17;;;;;;;8.34;71.55;98979.19;5001520;28;20038;-76
2024/03/18 15:58:46;;;;;;;2.20;1.00;;;;;;;8.56;69.84;98828.38;4970477;28;20770;-76
2024/03/18 16:01:16;;;;;;;1.55;0.90;;;;;;;7.79;69.21;98452.00;4978793;28;20034;-77
2024/03/18 16:03:42;;;;;;;3.00;0.90;;;;;;;8.37;69.64;98758.06;4978594;28;20038;-77
2024/03/18 16:06:07;;;;;;;1.00;0.90;;;;;;;8.54;70.02;98848.22;4972037;28;20443;-76
2024/03/18 16:08:34;;;;;;;1.10;0.90;;;;;;;7.98;69.28;98562.88;4997507;28;20035;-77
2024/03/18 16:11:02;;;;;;;5.60;0.95;;;;;;;7.78;70.20;98617.75;4988913;28;20038;-76
2024/03/18 16:13:28;;;;;;;1.63;1.00;;;;;;;7.91;71.13;98809.09;4965380;28;20042;-77
2024/03/18 16:15:54;;;;;;;1.90;0.95;;;;;;;8.09;71.51;98925.56;4976822;28;20034;-77
2024/03/18 16:18:19;;;;;;;;;;;;;;;7.32;70.14;98441.22;4972725;28;20043;-77
2024/03/18 16:20:45;;;;;;;2.17;1.30;;;;;;;7.50;71.24;98673.53;4983604;28;19910;-77
2024/03/18 16:23:11;;;;;;;1.80;0.90;;;;;;;7.60;71.09;98729.78;4986535;28;20133;-76
2024/03/18 16:25:36;;;;;;;1.98;1.00;;;;;;;7.67;70.99;98745.78;4971736;28;20373;-77
2024/03/18 16:28:03;;;;;;;3.03;1.23;;;;;;;7.72;71.07;98760.09;4976944;28;20034;-76
2024/03/18 16:30:29;;;;;;;1.27;0.95;;;;;;;7.85;71.51;98859.53;4975718;28;20093;-77
2024/03/18 16:32:54;;;;;;;1.77;0.93;;;;;;;7.32;70.98;98599.69;4986141;28;20038;-76
2024/03/18 16:35:20;;;;;;;2.17;1.00;;;;;;;7.04;71.89;98619.06;4980233;28;20050;-76
2024/03/18 16:37:45;;;;;;;1.85;1.20;;;;;;;7.31;72.56;98829.81;4977447;28;20045;-77
2024/03/18 16:40:12;;;;;;;1.37;0.90;;;;;;;7.43;72.88;98899.16;5002158;28;20284;-77
2024/03/18 16:42:41;;;;;;;2.40;0.90;;;;;;;7.16;72.91;98800.66;4981009;28;20066;-76
2024/03/18 16:45:07;;;;;;;1.63;0.90;;;;;;;7.04;72.68;98703.97;5001890;28;20149;-76
2024/03/18 16:47:33;;;;;;;1.58;1.10;;;;;;;7.25;72.84;98832.38;4982620;28;20066;-76
2024/03/18 16:49:58;;;;;;;3.00;1.10;;;;;;;6.98;73.48;98779.84;4971088;28;20081;-76
2024/03/18 16:52:24;;;;;;;2.53;0.97;;;;;;;7.01;75.11;99006.03;4972627;28;20042;-76
2024/03/18 16:54:49;;;;;;;3.45;1.73;;;;;;;7.02;75.09;98991.72;4970793;28;20030;-76
2024/03/18 16:57:15;;;;;;;3.97;1.95;;;;;;;7.04;75.15;99038.31;5003115;28;20053;-77
2024/03/18 16:59:40;;;;;;;1.80;1.42;;;;;;;6.98;75.76;99062.94;4977015;28;20027;-77
2024/03/18 17:02:08;;;;;;;3.17;1.30;;;;;;;7.09;76.78;99199.66;4969096;28;20048;-75
2024/03/18 17:04:33;;;;;;;4.15;1.45;;;;;;;6.95;76.96;99166.75;4963585;28;20043;-77
2024/03/18 17:06:59;;;;;;;3.50;1.55;;;;;;;7.06;77.23;99245.94;4978625;28;20030;-77
2024/03/18 17:09:24;;;;;;;3.33;1.80;;;;;;;6.81;78.05;99233.84;4971626;28;20560;-76
2024/03/18 17:11:50;;;;;;;8.60;6.20;;;;;;;6.81;78.29;99261.19;4975825;28;20049;-77
2024/03/18 17:14:16;;;;;;;3.10;1.92;;;;;;;6.56;78.67;99218.06;4969146;28;20034;-77
2024/03/18 17:16:45;;;;;;;3.53;2.30;;;;;;;6.36;79.94;99259.25;4974805;28;20056;-76
2024/03/18 17:19:11;;;;;;;2.83;2.10;;;;;;;6.64;82.11;99562.78;4973743;28;20070;-76
2024/03/18 17:21:36;;;;;;;2.75;2.10;;;;;;;6.53;81.06;99447.28;4981468;28;20125;-76
2024/03/18 17:24:03;;;;;;;7.03;3.88;;;;;;;6.50;81.36;99439.66;4988240;28;20196;-76
2024/03/18 17:26:29;;;;;;;5.75;3.20;;;;;;;6.19;81.29;99332.69;4968428;28;20026;-76
2024/03/18 17:28:54;;;;;;;2.17;1.80;;;;;;;6.51;82.11;99531.47;4972744;28;20537;-77
2024/03/18 17:31:20;;;;;;;5.33;3.23;;;;;;;6.28;82.33;99435.03;4975142;28;20050;-78
2024/03/18 17:33:46;;;;;;;9.03;4.07;;;;;;;6.12;83.45;99510.91;5004573;28;20034;-76
2024/03/18 17:36:13;;;;;;;45.95;23.90;;;;;;;6.27;84.11;99613.63;4978610;28;20649;-76
2024/03/18 17:38:39;;;;;;;17.40;9.48;;;;;;;6.14;83.95;99547.84;4977560;28;20041;-77
2024/03/18 17:41:05;;;;;;;48.40;20.17;;;;;;;6.22;84.22;99592.91;4960313;28;20038;-78
2024/03/18 17:43:32;;;;;;;93.72;41.00;;;;;;;6.04;84.46;99555.94;4983287;28;20069;-77
2024/03/18 17:45:58;;;;;;;43.22;18.80;;;;;;;6.09;85.79;99674.72;4983391;28;20044;-77
2024/03/18 17:48:26;;;;;;;32.28;16.42;;;;;;;5.99;85.27;99592.66;4978989;28;20042;-77
2024/03/18 17:50:57;;;;;;;25.52;11.35;;;;;;;5.95;85.67;99627.59;4988167;28;20356;-76
2024/03/18 17:53:23;;;;;;;21.98;10.65;;;;;;;5.91;86.00;99641.13;4970554;28;20162;-76
2024/03/18 17:55:52;;;;;;;12.88;9.73;;;;;;;5.88;86.62;99657.34;4980873;28;20109;-77
2024/03/18 17:58:20;;;;;;;6.45;5.05;;;;;;;5.98;86.96;99720.03;4969221;28;20104;-76
2024/03/18 18:00:46;;;;;;;3.97;2.58;;;;;;;5.96;87.12;99703.44;4980001;28;20041;-77
2024/03/18 18:03:11;;;;;;;9.00;4.93;;;;;;;5.97;87.45;99723.66;4968777;28;20026;-76
2024/03/18 18:05:37;;;;;;;9.02;4.13;;;;;;;5.72;87.83;99662.56;4979267;28;20041;-76
2024/03/18 18:08:03;;;;;;;5.43;3.35;;;;;;;5.94;88.69;99814.88;4971639;28;20046;-77
2024/03/18 18:10:30;;;;;;;6.40;3.03;;;;;;;5.72;88.49;99715.53;4968881;28;20049;-77
2024/03/18 18:12:56;;;;;;;6.88;3.53;;;;;;;5.75;89.59;99810.56;4980058;28;20506;-77
2024/03/18 18:15:21;;;;;;;8.27;4.60;;;;;;;5.77;90.09;99877.47;4998304;28;20120;-77
2024/03/18 18:17:46;;;;;;;8.93;6.70;;;;;;;5.74;90.73;99882.25;4972333;28;20046;-76
2024/03/18 18:20:12;;;;;;;7.90;5.50;;;;;;;5.62;91.17;99873.69;4978760;28;20329;-76
2024/03/18 18:22:39;;;;;;;11.43;7.07;;;;;;;5.67;92.21;99953.53;4985723;28;20030;-76
2024/03/18 18:25:05;;;;;;;8.65;5.68;;;;;;;5.42;92.63;99910.91;4961423;28;20516;-76
2024/03/18 18:27:31;;;;;;;11.52;5.30;;;;;;;5.46;94.19;100039.34;4976330;28;20041;-77
2024/03/18 18:29:57;;;;;;;15.40;6.72;;;;;;;5.44;95.36;100106.66;4967788;28;20493;-76
2024/03/18 18:32:24;;;;;;;14.38;8.43;;;;;;;5.57;96.21;100169.88;4974594;28;20049;-76
2024/03/18 18:34:49;;;;;;;;;;;;;;;5.67;97.04;100221.03;4974669;28;20047;-78
2024/03/18 18:37:14;;;;;;;15.10;6.63;;;;;;;5.48;97.53;100190.13;4977663;28;19910;-78
2024/03/18 18:39:40;;;;;;;23.58;16.52;;;;;;;5.37;98.90;100214.94;4970489;28;20034;-77
2024/03/18 18:42:07;;;;;;;16.77;10.67;;;;;;;5.28;100.00;100280.16;4978967;28;20078;-78
2024/03/18 18:44:34;;;;;;;24.08;13.75;;;;;;;5.24;100.00;100362.59;4973051;28;20357;-78
2024/03/18 18:46:59;;;;;;;23.92;13.45;;;;;;;5.36;100.00;100469.22;4995869;28;20034;-78
2024/03/18 18:49:25;;;;;;;44.13;27.02;;;;;;;5.11;100.00;100471.38;4977475;28;20094;-77
2024/03/18 18:51:50;;;;;;;48.85;29.15;;;;;;;5.06;100.00;100535.28;4966551;28;20639;-77
2024/03/18 18:54:15;;;;;;;22.63;10.47;;;;;;;5.24;100.00;100619.34;4980763;28;20034;-78
2024/03/18 18:56:41;;;;;;;33.67;20.83;;;;;;;5.22;100.00;100592.19;4996203;28;20285;-78
2024/03/18 18:59:06;;;;;;;15.97;7.73;;;;;;;5.07;100.00;100570.53;4971673;28;20273;-77
2024/03/18 19:01:32;;;;;;;11.40;5.97;;;;;;;4.76;100.00;100508.81;4983599;28;20042;-77
2024/03/18 19:03:57;;;;;;;13.18;6.63;;;;;;;4.89;100.00;100639.06;4975468;28;20624;-77
2024/03/18 19:06:23;;;;;;;13.68;7.28;;;;;;;4.70;100.00;100602.72;4977357;28;20034;-77
2024/03/18 19:08:48;;;;;;;15.27;7.72;;;;;;;4.99;100.00;100663.78;4971451;28;20038;-77
2024/03/18 19:11:14;;;;;;;14.33;6.67;;;;;;;4.85;100.00;100679.97;4968547;28;20047;-77
2024/03/18 19:13:39;;;;;;;16.50;8.38;;;;;;;4.77;100.00;100687.69;4979124;28;20500;-77
2024/03/18 19:16:06;;;;;;;18.42;10.48;;;;;;;4.72;100.00;100692.53;4973720;28;20074;-78
2024/03/18 19:18:31;;;;;;;18.00;9.98;;;;;;;4.79;100.00;100744.78;4999644;28;20876;-76
2024/03/18 19:20:57;;;;;;;17.80;11.40;;;;;;;4.69;100.00;100729.81;4976623;28;20042;-77
2024/03/18 19:23:24;;;;;;;20.50;9.63;;;;;;;4.54;100.00;100671.94;4990701;28;20073;-77
2024/03/18 19:25:55;;;;;;;28.13;14.48;;;;;;;4.70;100.00;100750.00;4970039;28;20029;-78
2024/03/18 19:28:24;;;;;;;21.90;12.65;;;;;;;4.69;100.00;100685.69;4978644;28;20045;-78
2024/03/18 19:30:50;;;;;;;35.47;21.23;;;;;;;4.51;100.00;100738.25;4971162;28;20397;-77